Terminal Aerodrome Forecast
Issued by NWS Nashville, TN

Home | Current Version | Previous Version | Text Only | Print | Product List | Glossary On
Versions: 1 2 3 4 5 6 7 8 9 10 11 12 13 14 15 16 17 18 19
000
FTUS44 KOHX 011720
TAFBNA
TAF
KBNA 011720Z 0118/0218 29010G25KT 1SM TSRA BKN035CB OVC120
     FM011830 26006KT 6SM -SHRA BR OVC050
     FM020000 20005KT P6SM OVC050
     FM020700 20006KT 6SM BR VCTS OVC025CB
     FM021000 21005KT 4SM -RA BR VCTS OVC015CB=

USA.gov is the U.S. government's official web portal to all federal, state and local government web resources and services.